Luystown, Missouri
Current Conditions -  °F | °C
As of 4:53 AM on Saturday 01 Nov 2014 (Local Time) from KJEF Reporting Station
Clear Clear  
Wind Chill: 23°   Ceiling: Unl
Heat Index: 28°   Visibility: 10mi
Dew Point: 21°   Wind: 5mph
Humidity: 75%   Direction: 330°NNW
Pressure: 30.47"   Gusts: NA
Location:  38.559°N, 91.9214°W
Report Text: KJEF 010953Z AUTO 33004KT 10SM CLR M02/M06 A3047 RMK AO2 SLP312 T10221061
Loading
Personal Weather Stations






























Interactive Weather Map
Tropical Storm Tracking
New forecast layout! Learn more

10-Day Weather Forecast

Advertisements
Track Severe Weather on mobile